sensor_id;sensor_type;location;lat;lon;timestamp;P1;durP1;ratioP1;P2;durP2;ratioP2
9082;SDS011;4577;48.704;9.000;2023-07-22T00:01:35;4.00;;;2.80;;
9082;SDS011;4577;48.704;9.000;2023-07-22T00:04:02;4.63;;;3.00;;
9082;SDS011;4577;48.704;9.000;2023-07-22T00:06:28;7.20;;;2.90;;
9082;SDS011;4577;48.704;9.000;2023-07-22T00:08:53;10.10;;;2.80;;
9082;SDS011;4577;48.704;9.000;2023-07-22T00:11:19;5.33;;;2.70;;
9082;SDS011;4577;48.704;9.000;2023-07-22T00:13:45;5.17;;;3.10;;
9082;SDS011;4577;48.704;9.000;2023-07-22T00:16:10;5.87;;;2.70;;
9082;SDS011;4577;48.704;9.000;2023-07-22T00:18:36;5.40;;;2.93;;
9082;SDS011;4577;48.704;9.000;2023-07-22T00:21:02;5.10;;;3.27;;
9082;SDS011;4577;48.704;9.000;2023-07-22T00:23:28;4.83;;;3.00;;
9082;SDS011;4577;48.704;9.000;2023-07-22T00:25:55;5.47;;;2.90;;
9082;SDS011;4577;48.704;9.000;2023-07-22T00:28:20;6.03;;;3.20;;
9082;SDS011;4577;48.704;9.000;2023-07-22T00:30:46;38.40;;;26.30;;
9082;SDS011;4577;48.704;9.000;2023-07-22T00:33:14;122.93;;;89.70;;
9082;SDS011;4577;48.704;9.000;2023-07-22T00:35:40;98.87;;;64.97;;
9082;SDS011;4577;48.704;9.000;2023-07-22T00:38:05;18.07;;;11.00;;
9082;SDS011;4577;48.704;9.000;2023-07-22T00:40:31;23.30;;;15.90;;
9082;SDS011;4577;48.704;9.000;2023-07-22T00:43:00;7.20;;;5.10;;
9082;SDS011;4577;48.704;9.000;2023-07-22T00:45:26;7.97;;;5.77;;
9082;SDS011;4577;48.704;9.000;2023-07-22T00:47:52;6.17;;;4.73;;
9082;SDS011;4577;48.704;9.000;2023-07-22T00:50:18;5.20;;;4.20;;
9082;SDS011;4577;48.704;9.000;2023-07-22T00:52:43;7.40;;;4.33;;
9082;SDS011;4577;48.704;9.000;2023-07-22T00:55:09;4.43;;;3.70;;
9082;SDS011;4577;48.704;9.000;2023-07-22T00:57:36;4.17;;;3.30;;
9082;SDS011;4577;48.704;9.000;2023-07-22T01:00:02;3.23;;;2.63;;
9082;SDS011;4577;48.704;9.000;2023-07-22T01:02:30;5.77;;;2.80;;
9082;SDS011;4577;48.704;9.000;2023-07-22T01:04:56;3.33;;;2.90;;
9082;SDS011;4577;48.704;9.000;2023-07-22T01:07:21;6.87;;;2.93;;
9082;SDS011;4577;48.704;9.000;2023-07-22T01:09:47;4.93;;;3.10;;
9082;SDS011;4577;48.704;9.000;2023-07-22T01:12:13;5.67;;;2.97;;
9082;SDS011;4577;48.704;9.000;2023-07-22T01:14:39;3.53;;;2.73;;
9082;SDS011;4577;48.704;9.000;2023-07-22T01:17:07;5.13;;;3.00;;
9082;SDS011;4577;48.704;9.000;2023-07-22T01:19:35;5.03;;;3.00;;
9082;SDS011;4577;48.704;9.000;2023-07-22T01:22:08;5.50;;;2.73;;
9082;SDS011;4577;48.704;9.000;2023-07-22T01:24:35;5.20;;;2.97;;
9082;SDS011;4577;48.704;9.000;2023-07-22T01:27:03;5.80;;;3.37;;
9082;SDS011;4577;48.704;9.000;2023-07-22T01:29:33;5.30;;;2.70;;
9082;SDS011;4577;48.704;9.000;2023-07-22T01:31:59;3.40;;;2.90;;
9082;SDS011;4577;48.704;9.000;2023-07-22T01:34:25;5.77;;;3.27;;
9082;SDS011;4577;48.704;9.000;2023-07-22T01:36:50;3.90;;;2.93;;
9082;SDS011;4577;48.704;9.000;2023-07-22T01:39:16;4.07;;;2.83;;
9082;SDS011;4577;48.704;9.000;2023-07-22T01:41:47;3.60;;;3.00;;
9082;SDS011;4577;48.704;9.000;2023-07-22T01:44:13;5.17;;;2.77;;
9082;SDS011;4577;48.704;9.000;2023-07-22T01:46:39;4.00;;;2.87;;
9082;SDS011;4577;48.704;9.000;2023-07-22T01:49:06;4.77;;;2.70;;
9082;SDS011;4577;48.704;9.000;2023-07-22T01:51:35;4.60;;;2.50;;
9082;SDS011;4577;48.704;9.000;2023-07-22T01:54:02;3.33;;;2.93;;
9082;SDS011;4577;48.704;9.000;2023-07-22T01:56:29;5.47;;;3.17;;
9082;SDS011;4577;48.704;9.000;2023-07-22T01:58:54;6.20;;;3.10;;
9082;SDS011;4577;48.704;9.000;2023-07-22T02:01:20;3.70;;;2.77;;
9082;SDS011;4577;48.704;9.000;2023-07-22T02:03:46;6.23;;;2.70;;
9082;SDS011;4577;48.704;9.000;2023-07-22T02:06:12;6.30;;;3.07;;
9082;SDS011;4577;48.704;9.000;2023-07-22T02:08:37;3.30;;;3.00;;
9082;SDS011;4577;48.704;9.000;2023-07-22T02:11:04;2.40;;;2.20;;
9082;SDS011;4577;48.704;9.000;2023-07-22T02:13:31;3.90;;;2.50;;
9082;SDS011;4577;48.704;9.000;2023-07-22T02:15:59;3.63;;;2.70;;
9082;SDS011;4577;48.704;9.000;2023-07-22T02:18:25;7.60;;;2.50;;
9082;SDS011;4577;48.704;9.000;2023-07-22T02:20:51;3.00;;;2.80;;
9082;SDS011;4577;48.704;9.000;2023-07-22T02:23:17;4.30;;;2.83;;
9082;SDS011;4577;48.704;9.000;2023-07-22T02:25:44;4.93;;;2.77;;
9082;SDS011;4577;48.704;9.000;2023-07-22T02:28:13;3.13;;;2.77;;
9082;SDS011;4577;48.704;9.000;2023-07-22T02:30:40;3.87;;;2.83;;
9082;SDS011;4577;48.704;9.000;2023-07-22T02:33:06;3.30;;;2.77;;
9082;SDS011;4577;48.704;9.000;2023-07-22T02:35:32;6.43;;;2.70;;
9082;SDS011;4577;48.704;9.000;2023-07-22T02:37:58;3.43;;;2.50;;
9082;SDS011;4577;48.704;9.000;2023-07-22T02:40:24;3.33;;;2.50;;
9082;SDS011;4577;48.704;9.000;2023-07-22T02:42:49;5.20;;;2.70;;
9082;SDS011;4577;48.704;9.000;2023-07-22T02:45:15;4.17;;;2.93;;
9082;SDS011;4577;48.704;9.000;2023-07-22T02:47:41;5.10;;;2.87;;
9082;SDS011;4577;48.704;9.000;2023-07-22T02:50:06;6.53;;;3.33;;
9082;SDS011;4577;48.704;9.000;2023-07-22T02:52:32;4.80;;;3.23;;
9082;SDS011;4577;48.704;9.000;2023-07-22T02:55:05;4.80;;;2.90;;
9082;SDS011;4577;48.704;9.000;2023-07-22T02:57:38;4.97;;;3.10;;
9082;SDS011;4577;48.704;9.000;2023-07-22T03:00:04;4.83;;;2.90;;
9082;SDS011;4577;48.704;9.000;2023-07-22T03:02:32;5.07;;;2.87;;
9082;SDS011;4577;48.704;9.000;2023-07-22T03:05:03;5.03;;;3.00;;
9082;SDS011;4577;48.704;9.000;2023-07-22T03:07:32;4.30;;;2.93;;
9082;SDS011;4577;48.704;9.000;2023-07-22T03:10:08;6.13;;;2.70;;
9082;SDS011;4577;48.704;9.000;2023-07-22T03:12:34;3.10;;;2.80;;
9082;SDS011;4577;48.704;9.000;2023-07-22T03:15:01;7.43;;;3.60;;
9082;SDS011;4577;48.704;9.000;2023-07-22T03:17:28;3.50;;;3.20;;
9082;SDS011;4577;48.704;9.000;2023-07-22T03:19:53;3.20;;;2.90;;
9082;SDS011;4577;48.704;9.000;2023-07-22T03:22:19;4.60;;;3.10;;
9082;SDS011;4577;48.704;9.000;2023-07-22T03:24:45;5.37;;;3.10;;
9082;SDS011;4577;48.704;9.000;2023-07-22T03:27:11;7.60;;;2.70;;
9082;SDS011;4577;48.704;9.000;2023-07-22T03:29:37;7.50;;;3.40;;
9082;SDS011;4577;48.704;9.000;2023-07-22T03:32:03;42.70;;;8.20;;
9082;SDS011;4577;48.704;9.000;2023-07-22T03:34:30;28.30;;;3.70;;
9082;SDS011;4577;48.704;9.000;2023-07-22T03:36:56;6.07;;;3.07;;
9082;SDS011;4577;48.704;9.000;2023-07-22T03:39:22;7.20;;;3.43;;
9082;SDS011;4577;48.704;9.000;2023-07-22T03:41:48;10.37;;;3.83;;
9082;SDS011;4577;48.704;9.000;2023-07-22T03:44:13;12.73;;;3.63;;
9082;SDS011;4577;48.704;9.000;2023-07-22T03:46:39;5.50;;;3.03;;
9082;SDS011;4577;48.704;9.000;2023-07-22T03:49:05;4.20;;;2.50;;
9082;SDS011;4577;48.704;9.000;2023-07-22T03:51:31;5.07;;;3.33;;
9082;SDS011;4577;48.704;9.000;2023-07-22T03:53:58;3.40;;;2.87;;
9082;SDS011;4577;48.704;9.000;2023-07-22T03:56:24;18.67;;;4.33;;
9082;SDS011;4577;48.704;9.000;2023-07-22T03:58:50;7.33;;;3.43;;
9082;SDS011;4577;48.704;9.000;2023-07-22T04:01:16;5.23;;;3.20;;
9082;SDS011;4577;48.704;9.000;2023-07-22T04:03:42;4.00;;;3.17;;
9082;SDS011;4577;48.704;9.000;2023-07-22T04:06:08;4.87;;;3.53;;
9082;SDS011;4577;48.704;9.000;2023-07-22T04:08:34;9.00;;;3.30;;
9082;SDS011;4577;48.704;9.000;2023-07-22T04:10:59;5.50;;;3.20;;
9082;SDS011;4577;48.704;9.000;2023-07-22T04:13:26;5.13;;;3.50;;
9082;SDS011;4577;48.704;9.000;2023-07-22T04:15:52;4.23;;;3.50;;
9082;SDS011;4577;48.704;9.000;2023-07-22T04:18:18;3.40;;;2.90;;
9082;SDS011;4577;48.704;9.000;2023-07-22T04:20:45;8.70;;;3.33;;
9082;SDS011;4577;48.704;9.000;2023-07-22T04:23:13;5.13;;;3.50;;
9082;SDS011;4577;48.704;9.000;2023-07-22T04:25:40;8.67;;;3.30;;
9082;SDS011;4577;48.704;9.000;2023-07-22T04:28:06;3.80;;;3.33;;
9082;SDS011;4577;48.704;9.000;2023-07-22T04:30:33;6.90;;;3.50;;
9082;SDS011;4577;48.704;9.000;2023-07-22T04:32:59;4.67;;;3.10;;
9082;SDS011;4577;48.704;9.000;2023-07-22T04:35:25;3.97;;;3.20;;
9082;SDS011;4577;48.704;9.000;2023-07-22T04:37:50;3.80;;;3.13;;
9082;SDS011;4577;48.704;9.000;2023-07-22T04:40:16;3.87;;;3.30;;
9082;SDS011;4577;48.704;9.000;2023-07-22T04:42:43;5.10;;;3.00;;
9082;SDS011;4577;48.704;9.000;2023-07-22T04:45:09;3.40;;;3.00;;
9082;SDS011;4577;48.704;9.000;2023-07-22T04:47:36;4.10;;;3.20;;
9082;SDS011;4577;48.704;9.000;2023-07-22T04:50:04;5.53;;;3.00;;
9082;SDS011;4577;48.704;9.000;2023-07-22T04:52:34;3.40;;;3.03;;
9082;SDS011;4577;48.704;9.000;2023-07-22T04:55:00;3.60;;;3.20;;
9082;SDS011;4577;48.704;9.000;2023-07-22T04:57:27;5.00;;;3.63;;
9082;SDS011;4577;48.704;9.000;2023-07-22T04:59:53;4.40;;;3.10;;
9082;SDS011;4577;48.704;9.000;2023-07-22T05:02:18;5.00;;;3.23;;
9082;SDS011;4577;48.704;9.000;2023-07-22T05:04:44;8.27;;;3.90;;
9082;SDS011;4577;48.704;9.000;2023-07-22T05:07:09;8.57;;;3.40;;
9082;SDS011;4577;48.704;9.000;2023-07-22T05:09:36;6.63;;;3.70;;
9082;SDS011;4577;48.704;9.000;2023-07-22T05:12:02;4.83;;;2.90;;
9082;SDS011;4577;48.704;9.000;2023-07-22T05:14:28;10.53;;;4.00;;
9082;SDS011;4577;48.704;9.000;2023-07-22T05:16:53;17.70;;;5.33;;
9082;SDS011;4577;48.704;9.000;2023-07-22T05:19:19;11.10;;;4.20;;
9082;SDS011;4577;48.704;9.000;2023-07-22T05:21:45;10.90;;;4.03;;
9082;SDS011;4577;48.704;9.000;2023-07-22T05:24:11;6.43;;;4.00;;
9082;SDS011;4577;48.704;9.000;2023-07-22T05:26:37;4.10;;;3.70;;
9082;SDS011;4577;48.704;9.000;2023-07-22T05:29:03;7.17;;;4.27;;
9082;SDS011;4577;48.704;9.000;2023-07-22T05:31:29;11.40;;;4.80;;
9082;SDS011;4577;48.704;9.000;2023-07-22T05:33:54;7.47;;;4.07;;
9082;SDS011;4577;48.704;9.000;2023-07-22T05:36:20;8.30;;;4.70;;
9082;SDS011;4577;48.704;9.000;2023-07-22T05:38:46;9.60;;;4.17;;
9082;SDS011;4577;48.704;9.000;2023-07-22T05:41:12;9.47;;;4.50;;
9082;SDS011;4577;48.704;9.000;2023-07-22T05:43:39;6.77;;;3.87;;
9082;SDS011;4577;48.704;9.000;2023-07-22T05:46:04;9.90;;;3.77;;
9082;SDS011;4577;48.704;9.000;2023-07-22T05:48:30;13.50;;;4.67;;
9082;SDS011;4577;48.704;9.000;2023-07-22T05:50:56;5.60;;;3.87;;
9082;SDS011;4577;48.704;9.000;2023-07-22T05:53:21;17.77;;;5.80;;
9082;SDS011;4577;48.704;9.000;2023-07-22T05:55:47;8.83;;;5.37;;
9082;SDS011;4577;48.704;9.000;2023-07-22T05:58:16;5.47;;;3.93;;
9082;SDS011;4577;48.704;9.000;2023-07-22T06:00:43;5.47;;;3.70;;
9082;SDS011;4577;48.704;9.000;2023-07-22T06:03:09;9.50;;;5.07;;
9082;SDS011;4577;48.704;9.000;2023-07-22T06:05:35;5.77;;;3.47;;
9082;SDS011;4577;48.704;9.000;2023-07-22T06:08:00;5.33;;;4.03;;
9082;SDS011;4577;48.704;9.000;2023-07-22T06:10:26;5.20;;;3.87;;
9082;SDS011;4577;48.704;9.000;2023-07-22T06:12:52;6.30;;;3.60;;
9082;SDS011;4577;48.704;9.000;2023-07-22T06:15:18;7.07;;;3.47;;
9082;SDS011;4577;48.704;9.000;2023-07-22T06:17:44;4.87;;;4.07;;
9082;SDS011;4577;48.704;9.000;2023-07-22T06:20:10;5.30;;;4.13;;
9082;SDS011;4577;48.704;9.000;2023-07-22T06:22:36;8.73;;;3.53;;
9082;SDS011;4577;48.704;9.000;2023-07-22T06:25:01;7.83;;;5.70;;
9082;SDS011;4577;48.704;9.000;2023-07-22T06:27:27;17.10;;;3.67;;
9082;SDS011;4577;48.704;9.000;2023-07-22T06:29:53;8.30;;;3.90;;
9082;SDS011;4577;48.704;9.000;2023-07-22T06:32:20;6.90;;;4.30;;
9082;SDS011;4577;48.704;9.000;2023-07-22T06:34:45;18.37;;;6.80;;
9082;SDS011;4577;48.704;9.000;2023-07-22T06:37:11;8.17;;;4.53;;
9082;SDS011;4577;48.704;9.000;2023-07-22T06:39:37;5.73;;;4.13;;
9082;SDS011;4577;48.704;9.000;2023-07-22T06:42:03;8.50;;;4.30;;
9082;SDS011;4577;48.704;9.000;2023-07-22T06:44:29;8.40;;;4.60;;
9082;SDS011;4577;48.704;9.000;2023-07-22T06:46:55;7.03;;;4.50;;
9082;SDS011;4577;48.704;9.000;2023-07-22T06:49:21;10.57;;;3.50;;
9082;SDS011;4577;48.704;9.000;2023-07-22T06:51:47;17.13;;;5.10;;
9082;SDS011;4577;48.704;9.000;2023-07-22T06:54:13;5.57;;;3.57;;
9082;SDS011;4577;48.704;9.000;2023-07-22T06:56:39;5.53;;;3.60;;
9082;SDS011;4577;48.704;9.000;2023-07-22T06:59:05;9.43;;;4.60;;
9082;SDS011;4577;48.704;9.000;2023-07-22T07:01:30;11.70;;;5.20;;
9082;SDS011;4577;48.704;9.000;2023-07-22T07:03:56;14.77;;;5.70;;
9082;SDS011;4577;48.704;9.000;2023-07-22T07:06:22;25.27;;;9.30;;
9082;SDS011;4577;48.704;9.000;2023-07-22T07:08:54;5.63;;;2.90;;
9082;SDS011;4577;48.704;9.000;2023-07-22T07:11:30;9.37;;;4.20;;
9082;SDS011;4577;48.704;9.000;2023-07-22T07:13:56;3.87;;;3.10;;
9082;SDS011;4577;48.704;9.000;2023-07-22T07:16:26;6.03;;;3.00;;
9082;SDS011;4577;48.704;9.000;2023-07-22T07:18:53;5.50;;;3.30;;
9082;SDS011;4577;48.704;9.000;2023-07-22T07:21:20;6.50;;;2.97;;
9082;SDS011;4577;48.704;9.000;2023-07-22T07:23:47;6.00;;;2.90;;
9082;SDS011;4577;48.704;9.000;2023-07-22T07:26:13;4.37;;;3.00;;
9082;SDS011;4577;48.704;9.000;2023-07-22T07:28:40;8.10;;;4.33;;
9082;SDS011;4577;48.704;9.000;2023-07-22T07:31:06;6.37;;;3.30;;
9082;SDS011;4577;48.704;9.000;2023-07-22T07:33:32;6.70;;;3.37;;
9082;SDS011;4577;48.704;9.000;2023-07-22T07:36:00;5.03;;;3.30;;
9082;SDS011;4577;48.704;9.000;2023-07-22T07:38:26;7.13;;;3.27;;
9082;SDS011;4577;48.704;9.000;2023-07-22T07:40:57;10.27;;;4.50;;
9082;SDS011;4577;48.704;9.000;2023-07-22T07:43:33;7.00;;;4.93;;
9082;SDS011;4577;48.704;9.000;2023-07-22T07:48:49;4.43;;;3.03;;
9082;SDS011;4577;48.704;9.000;2023-07-22T07:51:19;8.50;;;4.30;;
9082;SDS011;4577;48.704;9.000;2023-07-22T07:53:46;13.00;;;3.20;;
9082;SDS011;4577;48.704;9.000;2023-07-22T07:56:13;5.10;;;3.07;;
9082;SDS011;4577;48.704;9.000;2023-07-22T07:58:39;4.17;;;3.17;;
9082;SDS011;4577;48.704;9.000;2023-07-22T08:01:05;3.20;;;2.90;;
9082;SDS011;4577;48.704;9.000;2023-07-22T08:03:32;9.27;;;2.73;;
9082;SDS011;4577;48.704;9.000;2023-07-22T08:05:59;4.03;;;3.00;;
9082;SDS011;4577;48.704;9.000;2023-07-22T08:08:25;3.87;;;2.60;;
9082;SDS011;4577;48.704;9.000;2023-07-22T08:11:02;4.40;;;2.13;;
9082;SDS011;4577;48.704;9.000;2023-07-22T08:13:30;6.40;;;2.13;;
9082;SDS011;4577;48.704;9.000;2023-07-22T08:15:57;3.40;;;2.20;;
9082;SDS011;4577;48.704;9.000;2023-07-22T08:18:23;5.80;;;3.10;;
9082;SDS011;4577;48.704;9.000;2023-07-22T08:20:50;5.30;;;2.10;;
9082;SDS011;4577;48.704;9.000;2023-07-22T08:23:20;4.90;;;2.20;;
9082;SDS011;4577;48.704;9.000;2023-07-22T08:25:46;2.60;;;2.20;;
9082;SDS011;4577;48.704;9.000;2023-07-22T08:28:12;2.43;;;1.70;;
9082;SDS011;4577;48.704;9.000;2023-07-22T08:30:37;3.23;;;2.23;;
9082;SDS011;4577;48.704;9.000;2023-07-22T08:33:05;2.70;;;1.80;;
9082;SDS011;4577;48.704;9.000;2023-07-22T08:35:33;2.80;;;1.87;;
9082;SDS011;4577;48.704;9.000;2023-07-22T08:37:59;3.83;;;1.63;;
9082;SDS011;4577;48.704;9.000;2023-07-22T08:40:27;4.77;;;2.07;;
9082;SDS011;4577;48.704;9.000;2023-07-22T08:42:57;3.33;;;2.00;;
9082;SDS011;4577;48.704;9.000;2023-07-22T08:45:26;2.80;;;1.87;;
9082;SDS011;4577;48.704;9.000;2023-07-22T08:47:55;3.13;;;2.67;;
9082;SDS011;4577;48.704;9.000;2023-07-22T08:50:22;3.30;;;1.93;;
9082;SDS011;4577;48.704;9.000;2023-07-22T08:52:53;6.50;;;1.90;;
9082;SDS011;4577;48.704;9.000;2023-07-22T08:55:19;2.00;;;1.80;;
9082;SDS011;4577;48.704;9.000;2023-07-22T08:57:48;2.03;;;1.83;;
9082;SDS011;4577;48.704;9.000;2023-07-22T09:00:15;1.93;;;1.73;;
9082;SDS011;4577;48.704;9.000;2023-07-22T09:02:41;2.13;;;1.90;;
9082;SDS011;4577;48.704;9.000;2023-07-22T09:05:07;2.00;;;1.73;;
9082;SDS011;4577;48.704;9.000;2023-07-22T09:07:37;1.93;;;1.60;;
9082;SDS011;4577;48.704;9.000;2023-07-22T09:10:06;2.33;;;1.70;;
9082;SDS011;4577;48.704;9.000;2023-07-22T09:12:34;4.13;;;1.80;;
9082;SDS011;4577;48.704;9.000;2023-07-22T09:15:14;3.20;;;1.97;;
9082;SDS011;4577;48.704;9.000;2023-07-22T09:17:40;2.00;;;1.63;;
9082;SDS011;4577;48.704;9.000;2023-07-22T09:20:07;1.80;;;1.70;;
9082;SDS011;4577;48.704;9.000;2023-07-22T09:22:33;2.40;;;1.83;;
9082;SDS011;4577;48.704;9.000;2023-07-22T09:25:12;1.90;;;1.77;;
9082;SDS011;4577;48.704;9.000;2023-07-22T09:27:39;4.53;;;1.70;;
9082;SDS011;4577;48.704;9.000;2023-07-22T09:30:19;3.37;;;1.60;;
9082;SDS011;4577;48.704;9.000;2023-07-22T09:32:52;3.00;;;1.60;;
9082;SDS011;4577;48.704;9.000;2023-07-22T09:35:24;4.67;;;1.90;;
9082;SDS011;4577;48.704;9.000;2023-07-22T09:37:52;3.43;;;1.97;;
9082;SDS011;4577;48.704;9.000;2023-07-22T09:40:22;5.10;;;2.13;;
9082;SDS011;4577;48.704;9.000;2023-07-22T09:42:53;5.00;;;1.80;;
9082;SDS011;4577;48.704;9.000;2023-07-22T09:45:25;1.90;;;1.70;;
9082;SDS011;4577;48.704;9.000;2023-07-22T09:47:53;3.30;;;1.87;;
9082;SDS011;4577;48.704;9.000;2023-07-22T09:50:21;1.90;;;1.50;;
9082;SDS011;4577;48.704;9.000;2023-07-22T09:52:54;3.37;;;1.70;;
9082;SDS011;4577;48.704;9.000;2023-07-22T09:55:22;1.77;;;1.63;;
9082;SDS011;4577;48.704;9.000;2023-07-22T09:57:50;8.17;;;1.90;;
9082;SDS011;4577;48.704;9.000;2023-07-22T10:00:28;2.03;;;1.70;;
9082;SDS011;4577;48.704;9.000;2023-07-22T10:02:59;6.10;;;2.10;;
9082;SDS011;4577;48.704;9.000;2023-07-22T10:05:26;1.73;;;1.63;;
9082;SDS011;4577;48.704;9.000;2023-07-22T10:07:57;1.70;;;1.53;;
9082;SDS011;4577;48.704;9.000;2023-07-22T10:10:28;1.90;;;1.70;;
9082;SDS011;4577;48.704;9.000;2023-07-22T10:13:00;7.20;;;1.80;;
9082;SDS011;4577;48.704;9.000;2023-07-22T10:15:28;2.07;;;1.87;;
9082;SDS011;4577;48.704;9.000;2023-07-22T10:17:55;4.93;;;2.90;;
9082;SDS011;4577;48.704;9.000;2023-07-22T10:20:22;26.37;;;13.97;;
9082;SDS011;4577;48.704;9.000;2023-07-22T10:22:49;4.87;;;4.37;;
9082;SDS011;4577;48.704;9.000;2023-07-22T10:25:16;2.80;;;2.40;;
9082;SDS011;4577;48.704;9.000;2023-07-22T10:27:43;3.33;;;1.90;;
9082;SDS011;4577;48.704;9.000;2023-07-22T10:30:11;2.23;;;1.70;;
9082;SDS011;4577;48.704;9.000;2023-07-22T10:32:44;1.73;;;1.63;;
9082;SDS011;4577;48.704;9.000;2023-07-22T10:37:55;2.60;;;1.80;;
9082;SDS011;4577;48.704;9.000;2023-07-22T10:45:32;2.10;;;1.90;;
9082;SDS011;4577;48.704;9.000;2023-07-22T10:53:05;2.50;;;2.30;;
9082;SDS011;4577;48.704;9.000;2023-07-22T10:55:31;2.73;;;2.50;;
9082;SDS011;4577;48.704;9.000;2023-07-22T10:58:04;2.60;;;2.00;;
9082;SDS011;4577;48.704;9.000;2023-07-22T11:00:30;2.10;;;1.80;;
9082;SDS011;4577;48.704;9.000;2023-07-22T11:03:10;1.80;;;1.60;;
9082;SDS011;4577;48.704;9.000;2023-07-22T11:05:52;3.37;;;2.00;;
9082;SDS011;4577;48.704;9.000;2023-07-22T11:08:39;3.60;;;3.07;;
9082;SDS011;4577;48.704;9.000;2023-07-22T11:11:05;2.67;;;2.10;;
9082;SDS011;4577;48.704;9.000;2023-07-22T11:13:34;3.50;;;2.33;;
9082;SDS011;4577;48.704;9.000;2023-07-22T11:16:04;2.33;;;1.97;;
9082;SDS011;4577;48.704;9.000;2023-07-22T11:18:36;6.43;;;3.60;;
9082;SDS011;4577;48.704;9.000;2023-07-22T11:21:09;3.77;;;2.70;;
9082;SDS011;4577;48.704;9.000;2023-07-22T11:23:36;6.33;;;2.20;;
9082;SDS011;4577;48.704;9.000;2023-07-22T11:26:02;7.83;;;5.43;;
9082;SDS011;4577;48.704;9.000;2023-07-22T11:28:29;7.77;;;4.63;;
9082;SDS011;4577;48.704;9.000;2023-07-22T11:30:55;2.83;;;2.63;;
9082;SDS011;4577;48.704;9.000;2023-07-22T11:33:21;12.80;;;9.73;;
9082;SDS011;4577;48.704;9.000;2023-07-22T11:35:47;4.17;;;3.20;;
9082;SDS011;4577;48.704;9.000;2023-07-22T11:38:12;3.40;;;2.40;;
9082;SDS011;4577;48.704;9.000;2023-07-22T11:40:38;4.30;;;3.90;;
9082;SDS011;4577;48.704;9.000;2023-07-22T11:43:04;2.30;;;1.97;;
9082;SDS011;4577;48.704;9.000;2023-07-22T11:45:30;3.57;;;2.07;;
9082;SDS011;4577;48.704;9.000;2023-07-22T11:47:56;4.03;;;1.90;;
9082;SDS011;4577;48.704;9.000;2023-07-22T11:50:34;6.37;;;2.80;;
9082;SDS011;4577;48.704;9.000;2023-07-22T11:53:00;7.00;;;2.03;;
9082;SDS011;4577;48.704;9.000;2023-07-22T11:55:25;2.03;;;1.83;;
9082;SDS011;4577;48.704;9.000;2023-07-22T11:57:52;2.37;;;1.87;;
9082;SDS011;4577;48.704;9.000;2023-07-22T12:00:18;3.93;;;1.97;;
9082;SDS011;4577;48.704;9.000;2023-07-22T12:02:44;4.20;;;3.27;;
9082;SDS011;4577;48.704;9.000;2023-07-22T12:05:10;6.37;;;4.17;;
9082;SDS011;4577;48.704;9.000;2023-07-22T12:07:37;7.90;;;4.20;;
9082;SDS011;4577;48.704;9.000;2023-07-22T12:10:04;3.30;;;1.80;;
9082;SDS011;4577;48.704;9.000;2023-07-22T12:12:38;3.87;;;2.30;;
9082;SDS011;4577;48.704;9.000;2023-07-22T12:15:19;5.73;;;3.67;;
9082;SDS011;4577;48.704;9.000;2023-07-22T12:17:47;11.77;;;8.90;;
9082;SDS011;4577;48.704;9.000;2023-07-22T12:20:27;3.43;;;2.73;;
9082;SDS011;4577;48.704;9.000;2023-07-22T12:22:58;10.33;;;4.43;;
9082;SDS011;4577;48.704;9.000;2023-07-22T12:25:24;4.63;;;3.70;;
9082;SDS011;4577;48.704;9.000;2023-07-22T12:27:50;2.90;;;2.00;;
9082;SDS011;4577;48.704;9.000;2023-07-22T12:30:16;6.63;;;2.30;;
9082;SDS011;4577;48.704;9.000;2023-07-22T12:32:43;4.83;;;3.27;;
9082;SDS011;4577;48.704;9.000;2023-07-22T12:35:08;5.00;;;2.63;;
9082;SDS011;4577;48.704;9.000;2023-07-22T12:37:35;3.33;;;2.80;;
9082;SDS011;4577;48.704;9.000;2023-07-22T12:40:01;5.30;;;3.90;;
9082;SDS011;4577;48.704;9.000;2023-07-22T12:42:30;9.87;;;6.90;;
9082;SDS011;4577;48.704;9.000;2023-07-22T12:44:55;4.30;;;2.80;;
9082;SDS011;4577;48.704;9.000;2023-07-22T12:47:21;3.20;;;2.90;;
9082;SDS011;4577;48.704;9.000;2023-07-22T12:49:46;7.77;;;4.60;;
9082;SDS011;4577;48.704;9.000;2023-07-22T12:52:12;7.77;;;5.53;;
9082;SDS011;4577;48.704;9.000;2023-07-22T12:54:38;4.43;;;3.50;;
9082;SDS011;4577;48.704;9.000;2023-07-22T12:57:04;5.30;;;2.57;;
9082;SDS011;4577;48.704;9.000;2023-07-22T12:59:30;4.40;;;4.00;;
9082;SDS011;4577;48.704;9.000;2023-07-22T13:01:56;5.50;;;3.27;;
9082;SDS011;4577;48.704;9.000;2023-07-22T13:04:23;7.53;;;2.30;;
9082;SDS011;4577;48.704;9.000;2023-07-22T13:06:52;7.13;;;5.47;;
9082;SDS011;4577;48.704;9.000;2023-07-22T13:09:18;3.40;;;2.83;;
9082;SDS011;4577;48.704;9.000;2023-07-22T13:11:44;3.87;;;2.50;;
9082;SDS011;4577;48.704;9.000;2023-07-22T13:14:10;3.60;;;2.67;;
9082;SDS011;4577;48.704;9.000;2023-07-22T13:16:35;3.57;;;2.67;;
9082;SDS011;4577;48.704;9.000;2023-07-22T13:19:01;2.93;;;2.63;;
9082;SDS011;4577;48.704;9.000;2023-07-22T13:21:28;2.80;;;2.40;;
9082;SDS011;4577;48.704;9.000;2023-07-22T13:23:54;4.80;;;2.90;;
9082;SDS011;4577;48.704;9.000;2023-07-22T13:26:20;3.20;;;2.87;;
9082;SDS011;4577;48.704;9.000;2023-07-22T13:28:46;3.00;;;2.60;;
9082;SDS011;4577;48.704;9.000;2023-07-22T13:31:11;2.90;;;2.57;;
9082;SDS011;4577;48.704;9.000;2023-07-22T13:33:37;4.13;;;3.23;;
9082;SDS011;4577;48.704;9.000;2023-07-22T13:36:03;4.80;;;2.90;;
9082;SDS011;4577;48.704;9.000;2023-07-22T13:38:28;3.97;;;2.80;;
9082;SDS011;4577;48.704;9.000;2023-07-22T13:40:55;7.47;;;2.50;;
9082;SDS011;4577;48.704;9.000;2023-07-22T13:43:20;39.00;;;24.57;;
9082;SDS011;4577;48.704;9.000;2023-07-22T13:45:46;3.43;;;2.67;;
9082;SDS011;4577;48.704;9.000;2023-07-22T13:48:12;4.90;;;2.70;;
9082;SDS011;4577;48.704;9.000;2023-07-22T13:50:37;7.20;;;2.40;;
9082;SDS011;4577;48.704;9.000;2023-07-22T13:53:03;3.20;;;2.30;;
9082;SDS011;4577;48.704;9.000;2023-07-22T13:55:29;2.80;;;2.50;;
9082;SDS011;4577;48.704;9.000;2023-07-22T13:57:54;2.43;;;2.23;;
9082;SDS011;4577;48.704;9.000;2023-07-22T14:00:20;3.23;;;2.50;;
9082;SDS011;4577;48.704;9.000;2023-07-22T14:02:46;2.93;;;2.63;;
9082;SDS011;4577;48.704;9.000;2023-07-22T14:05:11;3.70;;;2.40;;
9082;SDS011;4577;48.704;9.000;2023-07-22T14:07:38;2.97;;;2.60;;
9082;SDS011;4577;48.704;9.000;2023-07-22T14:10:05;3.20;;;2.70;;
9082;SDS011;4577;48.704;9.000;2023-07-22T14:12:31;6.00;;;2.60;;
9082;SDS011;4577;48.704;9.000;2023-07-22T14:14:56;4.63;;;2.70;;
9082;SDS011;4577;48.704;9.000;2023-07-22T14:17:22;3.60;;;2.60;;
9082;SDS011;4577;48.704;9.000;2023-07-22T14:19:48;3.30;;;3.00;;
9082;SDS011;4577;48.704;9.000;2023-07-22T14:22:13;4.30;;;3.20;;
9082;SDS011;4577;48.704;9.000;2023-07-22T14:24:39;9.70;;;3.37;;
9082;SDS011;4577;48.704;9.000;2023-07-22T14:27:05;4.67;;;3.17;;
9082;SDS011;4577;48.704;9.000;2023-07-22T14:29:31;7.33;;;3.57;;
9082;SDS011;4577;48.704;9.000;2023-07-22T14:31:57;8.27;;;4.70;;
9082;SDS011;4577;48.704;9.000;2023-07-22T14:34:23;5.67;;;4.03;;
9082;SDS011;4577;48.704;9.000;2023-07-22T14:36:48;3.60;;;3.23;;
9082;SDS011;4577;48.704;9.000;2023-07-22T14:39:15;8.27;;;3.60;;
9082;SDS011;4577;48.704;9.000;2023-07-22T14:41:41;11.10;;;7.60;;
9082;SDS011;4577;48.704;9.000;2023-07-22T14:44:09;6.33;;;3.87;;
9082;SDS011;4577;48.704;9.000;2023-07-22T14:46:35;11.30;;;7.80;;
9082;SDS011;4577;48.704;9.000;2023-07-22T14:49:01;6.20;;;4.97;;
9082;SDS011;4577;48.704;9.000;2023-07-22T14:51:27;5.07;;;3.33;;
9082;SDS011;4577;48.704;9.000;2023-07-22T14:53:53;5.20;;;3.23;;
9082;SDS011;4577;48.704;9.000;2023-07-22T14:56:18;5.30;;;3.40;;
9082;SDS011;4577;48.704;9.000;2023-07-22T14:58:44;4.30;;;3.27;;
9082;SDS011;4577;48.704;9.000;2023-07-22T15:01:10;3.50;;;3.10;;
9082;SDS011;4577;48.704;9.000;2023-07-22T15:03:36;8.40;;;3.40;;
9082;SDS011;4577;48.704;9.000;2023-07-22T15:06:03;4.10;;;3.37;;
9082;SDS011;4577;48.704;9.000;2023-07-22T15:08:30;4.50;;;2.80;;
9082;SDS011;4577;48.704;9.000;2023-07-22T15:10:55;7.17;;;3.00;;
9082;SDS011;4577;48.704;9.000;2023-07-22T15:13:21;4.00;;;3.40;;
9082;SDS011;4577;48.704;9.000;2023-07-22T15:15:47;6.00;;;3.43;;
9082;SDS011;4577;48.704;9.000;2023-07-22T15:18:12;3.30;;;3.00;;
9082;SDS011;4577;48.704;9.000;2023-07-22T15:20:38;5.17;;;3.00;;
9082;SDS011;4577;48.704;9.000;2023-07-22T15:23:04;4.27;;;3.50;;
9082;SDS011;4577;48.704;9.000;2023-07-22T15:25:29;4.40;;;3.73;;
9082;SDS011;4577;48.704;9.000;2023-07-22T15:27:55;3.73;;;3.00;;
9082;SDS011;4577;48.704;9.000;2023-07-22T15:30:21;5.40;;;3.23;;